Airfield :







YOU CAN JOIN US ON...

 
LOGIN :

Register | Disclaimer

   EN    FR    IT 

 









Legend :    VFR   Marginal VFR   IFR   Intensive IFR   Very Intensive IFR
Visi :
Ceiling :
>= 8 km
>= 3000ft
5 to 8 km
1000 to 3000 ft
1500m to 5 km
500 to 1000 ft
800 to 1500m
200 to 500 ft
< 800m
< 200 ft
Symbols :   Thunderstorms  Fog  Heavy snow  Heavy precipitations  Wind > 20 kt






- Airport Elevation : 988 ft


KFVE - Northern Aroostook Regional

CURRENT METAR :
  • 090653Z AUTO 11007KT 10SM OVC060 12/11 A2990 RMK AO2 RAE30 SLP122 P0001 T01220106

EXPIRED METARs :
  • 090553Z AUTO 5SM RA BR FEW014 BKN036 OVC044 13/12 A2991 RMK AO2 SLP126 P0023 60089 T01280117 10150 20128 55007
  • 090528Z AUTO 06007KT 5SM RA BR FEW005 BKN030 OVC049 13/12 A2991 RMK AO2 P0013 T01330117
  • 090517Z AUTO 03004KT 6SM RA BR SCT003 BKN013 OVC049 13/12 A2991 RMK AO2 P0010 T01330122
  • 090453Z AUTO 11007KT 3SM +RA BR BKN002 OVC028 13/13 A2990 RMK AO2 SLP121 P0035 T01330128 402110117
  • 090449Z AUTO 12007KT 4SM +RA BR BKN002 BKN021 OVC028 13/13 A2990 RMK AO2 P0032
  • 090436Z AUTO 11009KT 3SM +RA BR SCT002 BKN024 OVC036 14/12 A2990 RMK AO2 P0026 T01390122

TAF KFVE
Valid from the 09 at 05:00 until the 10 at 06:00 UTC


090528Z 0905/1006 07005KT 3SM +RA OVC045
TEMPO 0906/0908 BKN002
FM091000 06009G17KT P6SM -SHRA OVC009
FM091600 05010G18KT P6SM OVC011
FM100200 05004KT P6SM SCT035
KZBW FIR / North America



MET'MAP, your aeronautical weather chart ! - Copyright ORBIFLY December 2007 - Disclaimer

ORBIFLY MET'MAP TEAM :

Programming & Development : Alexandra Zaïnal
Original concept : Baudouin d'Aumeries
Technical & hardware support : Manuel Goepfert
Assistance : Marc-Olivier Méhu




SOURCES & CREDITS :

   NOAA